createdAt,value
2023-02-19T00:00:18.940Z,11.65
2023-02-19T00:01:46.026Z,11.67
2023-02-19T00:02:48.449Z,11.68
2023-02-19T00:03:57.108Z,11.69
2023-02-19T00:04:59.751Z,11.70
2023-02-19T00:06:03.110Z,11.71
2023-02-19T00:07:05.483Z,11.72
2023-02-19T00:08:07.873Z,11.73
2023-02-19T00:09:13.314Z,11.73
2023-02-19T00:10:15.721Z,11.74
2023-02-19T00:11:20.974Z,11.74
2023-02-19T00:12:23.419Z,11.75
2023-02-19T00:13:25.778Z,11.76
2023-02-19T00:14:28.117Z,11.76
2023-02-19T00:15:32.878Z,11.77
2023-02-19T00:16:40.026Z,11.78
2023-02-19T00:17:42.397Z,11.78
2023-02-19T00:18:45.236Z,11.79
2023-02-19T00:19:47.620Z,11.79
2023-02-19T00:20:50.241Z,11.79
2023-02-19T00:21:53.347Z,11.80
2023-02-19T00:22:55.700Z,11.81
2023-02-19T00:24:00.296Z,11.81
2023-02-19T00:25:02.672Z,11.81
2023-02-19T00:26:18.106Z,11.82
2023-02-19T00:27:21.190Z,11.82
2023-02-19T00:28:23.565Z,11.82
2023-02-19T00:29:25.945Z,11.83
2023-02-19T00:30:28.338Z,11.83
2023-02-19T00:31:33.599Z,11.83
2023-02-19T00:32:36.042Z,11.84
2023-02-19T00:33:38.549Z,11.84
2023-02-19T00:34:40.925Z,11.84
2023-02-19T00:35:43.329Z,11.85
2023-02-19T00:36:45.764Z,11.86
2023-02-19T00:37:48.306Z,11.86
2023-02-19T00:38:51.126Z,11.86
2023-02-19T00:39:53.449Z,11.86
2023-02-19T00:40:55.899Z,11.87
2023-02-19T00:41:59.513Z,11.88
2023-02-19T00:43:01.907Z,11.88
2023-02-19T00:44:06.470Z,11.89
2023-02-19T00:45:09.023Z,11.90
2023-02-19T00:46:11.447Z,11.91
2023-02-19T00:47:13.790Z,11.91
2023-02-19T00:48:16.226Z,11.91
2023-02-19T00:49:21.684Z,11.92
2023-02-19T00:50:24.035Z,11.92
2023-02-19T00:51:28.992Z,11.93
2023-02-19T00:52:31.549Z,11.95
2023-02-19T00:53:33.889Z,11.97
2023-02-19T00:54:36.229Z,11.97
2023-02-19T00:55:38.631Z,11.98
2023-02-19T00:56:41.131Z,12.00
2023-02-19T00:57:43.538Z,12.01
2023-02-19T00:58:46.358Z,12.01
2023-02-19T00:59:48.691Z,12.02
2023-02-19T01:00:51.047Z,12.02
2023-02-19T01:01:53.541Z,12.02
2023-02-19T01:02:55.908Z,12.02
2023-02-19T01:03:58.266Z,12.03
2023-02-19T01:05:00.651Z,12.02
2023-02-19T01:06:04.228Z,12.02
2023-02-19T01:07:07.926Z,12.01
2023-02-19T01:08:11.396Z,12.00
2023-02-19T01:09:13.816Z,12.00
2023-02-19T01:10:16.657Z,12.00
2023-02-19T01:11:20.405Z,11.99
2023-02-19T01:12:24.384Z,11.99
2023-02-19T01:13:28.481Z,11.98
2023-02-19T01:14:30.858Z,11.97
2023-02-19T01:15:34.099Z,11.97
2023-02-19T01:16:36.627Z,11.96
2023-02-19T01:17:39.021Z,11.96
2023-02-19T01:18:41.991Z,11.95
2023-02-19T01:19:44.377Z,11.94
2023-02-19T01:20:46.803Z,11.93
2023-02-19T01:21:49.170Z,11.92
2023-02-19T01:22:51.576Z,11.91
2023-02-19T01:23:54.785Z,11.90
2023-02-19T01:24:57.101Z,11.88
2023-02-19T01:25:59.445Z,11.87
2023-02-19T01:27:01.778Z,11.85
2023-02-19T01:28:04.296Z,11.84
2023-02-19T01:29:06.648Z,11.83
2023-02-19T01:30:09.764Z,11.82
2023-02-19T01:31:16.213Z,11.81
2023-02-19T01:32:18.631Z,11.79
2023-02-19T01:33:21.084Z,11.78
2023-02-19T01:34:23.414Z,11.76
2023-02-19T01:35:25.771Z,11.74
2023-02-19T01:36:29.509Z,11.72
2023-02-19T01:37:31.913Z,11.71
2023-02-19T01:38:34.350Z,11.69
2023-02-19T01:39:36.732Z,11.68
2023-02-19T01:40:39.094Z,11.67
2023-02-19T01:41:42.061Z,11.65
2023-02-19T01:42:45.067Z,11.64
2023-02-19T01:44:18.279Z,11.62
2023-02-19T01:45:31.855Z,11.60
2023-02-19T01:46:35.864Z,11.58
2023-02-19T01:47:38.265Z,11.57
2023-02-19T01:48:41.305Z,11.55
2023-02-19T01:49:51.479Z,11.53
2023-02-19T01:50:59.166Z,11.51
2023-02-19T01:52:15.890Z,11.49
2023-02-19T01:53:23.054Z,11.47
2023-02-19T01:54:27.720Z,11.45
2023-02-19T01:55:30.077Z,11.43
2023-02-19T01:56:34.465Z,11.41
2023-02-19T01:57:42.267Z,11.39
2023-02-19T01:58:45.160Z,11.37
2023-02-19T01:59:50.792Z,11.36
2023-02-19T02:00:53.185Z,11.36
2023-02-19T02:01:56.304Z,11.35
2023-02-19T02:02:59.985Z,11.34
2023-02-19T02:04:02.542Z,11.34
2023-02-19T02:05:09.277Z,11.35
2023-02-19T02:06:14.452Z,11.35
2023-02-19T02:07:35.705Z,11.35
2023-02-19T02:08:56.889Z,11.35
2023-02-19T02:10:18.286Z,11.35
2023-02-19T02:11:21.263Z,11.35
2023-02-19T02:12:23.685Z,11.35
2023-02-19T02:13:26.684Z,11.35
2023-02-19T02:14:31.754Z,11.35
2023-02-19T02:15:49.151Z,11.35
2023-02-19T02:17:36.753Z,11.36
2023-02-19T02:18:57.187Z,11.38
2023-02-19T02:20:14.781Z,11.39
2023-02-19T02:21:54.544Z,11.40
2023-02-19T02:23:09.553Z,11.41
2023-02-19T02:24:28.946Z,11.43
2023-02-19T02:25:52.785Z,11.44
2023-02-19T02:27:24.338Z,11.46
2023-02-19T02:28:48.571Z,11.48
2023-02-19T02:29:59.991Z,11.50
2023-02-19T02:31:29.418Z,11.52
2023-02-19T02:32:53.674Z,11.55
2023-02-19T02:34:07.924Z,11.58
2023-02-19T02:35:11.908Z,11.60
2023-02-19T02:36:19.501Z,11.62
2023-02-19T02:37:24.517Z,11.63
2023-02-19T02:38:30.346Z,11.65
2023-02-19T02:39:33.027Z,11.66
2023-02-19T02:40:35.387Z,11.68
2023-02-19T02:42:13.660Z,11.70
2023-02-19T02:43:16.023Z,11.71
2023-02-19T02:44:18.347Z,11.72
2023-02-19T02:45:36.366Z,11.72
2023-02-19T02:46:42.634Z,11.73
2023-02-19T02:47:53.305Z,11.73
2023-02-19T02:48:58.477Z,11.74
2023-02-19T02:50:07.156Z,11.74
2023-02-19T02:51:27.769Z,11.74
2023-02-19T02:52:49.181Z,11.74
2023-02-19T02:54:23.196Z,11.74
2023-02-19T02:55:29.736Z,11.74
2023-02-19T02:56:32.527Z,11.74
2023-02-19T02:57:34.886Z,11.74
2023-02-19T02:58:38.139Z,11.74
2023-02-19T02:59:41.924Z,11.74
2023-02-19T03:01:07.950Z,11.73
2023-02-19T03:02:19.156Z,11.72
2023-02-19T03:03:24.241Z,11.72
2023-02-19T03:04:26.610Z,11.71
2023-02-19T03:05:47.820Z,11.71
2023-02-19T03:06:51.052Z,11.71
2023-02-19T03:08:10.087Z,11.71
2023-02-19T03:09:21.080Z,11.71
2023-02-19T03:10:28.848Z,11.71
2023-02-19T03:11:51.665Z,11.70
2023-02-19T03:13:15.243Z,11.70
2023-02-19T03:14:44.281Z,11.70
2023-02-19T03:16:11.532Z,11.69
2023-02-19T03:17:38.884Z,11.69
2023-02-19T03:19:02.181Z,11.68
2023-02-19T03:20:10.822Z,11.67
2023-02-19T03:21:16.203Z,11.66
2023-02-19T03:22:26.595Z,11.65
2023-02-19T03:23:50.144Z,11.65
2023-02-19T03:25:19.184Z,11.65
2023-02-19T03:26:22.135Z,11.65
2023-02-19T03:27:28.558Z,11.66
2023-02-19T03:28:51.980Z,11.66
2023-02-19T03:29:57.699Z,11.67
2023-02-19T03:31:00.279Z,11.68
2023-02-19T03:32:09.120Z,11.69
2023-02-19T03:33:17.160Z,11.69
2023-02-19T03:34:26.268Z,11.69
2023-02-19T03:35:35.919Z,11.70
2023-02-19T03:36:43.980Z,11.71
2023-02-19T03:38:21.457Z,11.71
2023-02-19T03:39:24.513Z,11.72
2023-02-19T03:40:30.067Z,11.73
2023-02-19T03:41:41.258Z,11.73
2023-02-19T03:42:56.255Z,11.73
2023-02-19T03:44:18.149Z,11.74
2023-02-19T03:46:14.116Z,11.74
2023-02-19T03:47:26.718Z,11.74
2023-02-19T03:48:35.068Z,11.74
2023-02-19T03:49:49.993Z,11.73
2023-02-19T03:51:06.316Z,11.73
2023-02-19T03:52:18.849Z,11.72
2023-02-19T03:53:33.190Z,11.71
2023-02-19T03:54:46.603Z,11.69
2023-02-19T03:56:16.568Z,11.68
2023-02-19T03:57:24.018Z,11.65
2023-02-19T03:58:55.318Z,11.64
2023-02-19T04:00:14.160Z,11.62
2023-02-19T04:01:55.611Z,11.60
2023-02-19T04:03:18.424Z,11.57
2023-02-19T04:04:36.618Z,11.55
2023-02-19T04:05:51.269Z,11.53
2023-02-19T04:06:57.694Z,11.52
2023-02-19T04:08:06.666Z,11.49
2023-02-19T04:09:11.710Z,11.48
2023-02-19T04:10:15.398Z,11.46
2023-02-19T04:11:20.013Z,11.44
2023-02-19T04:12:24.023Z,11.43
2023-02-19T04:13:46.246Z,11.42
2023-02-19T04:15:05.553Z,11.41
2023-02-19T04:16:12.209Z,11.40
2023-02-19T04:17:21.932Z,11.40
2023-02-19T04:18:31.710Z,11.40
2023-02-19T04:19:37.397Z,11.39
2023-02-19T04:20:43.527Z,11.39
2023-02-19T04:21:46.966Z,11.38
2023-02-19T04:22:49.675Z,11.38
2023-02-19T04:23:52.281Z,11.37
2023-02-19T04:24:55.702Z,11.36
2023-02-19T04:26:00.253Z,11.35
2023-02-19T04:27:03.781Z,11.34
2023-02-19T04:28:07.965Z,11.33
2023-02-19T04:29:10.300Z,11.32
2023-02-19T04:30:14.340Z,11.31
2023-02-19T04:31:16.787Z,11.30
2023-02-19T04:32:19.264Z,11.29
2023-02-19T04:33:21.650Z,11.29
2023-02-19T04:34:24.032Z,11.28
2023-02-19T04:35:26.454Z,11.28
2023-02-19T04:36:28.843Z,11.28
2023-02-19T04:37:31.249Z,11.28
2023-02-19T04:38:33.599Z,11.27
2023-02-19T04:39:36.054Z,11.26
2023-02-19T04:40:38.413Z,11.25
2023-02-19T04:41:40.721Z,11.24
2023-02-19T04:42:43.051Z,11.23
2023-02-19T04:43:45.418Z,11.22
2023-02-19T04:44:47.756Z,11.21
2023-02-19T04:45:50.076Z,11.21
2023-02-19T04:46:52.444Z,11.19
2023-02-19T04:47:54.952Z,11.18
2023-02-19T04:48:57.401Z,11.17
2023-02-19T04:49:59.810Z,11.17
2023-02-19T04:51:06.498Z,11.16
2023-02-19T04:52:08.850Z,11.16
2023-02-19T04:53:11.243Z,11.16
2023-02-19T04:54:13.650Z,11.15
2023-02-19T04:55:16.027Z,11.15
2023-02-19T04:56:18.422Z,11.14
2023-02-19T04:57:20.895Z,11.14
2023-02-19T04:58:23.270Z,11.13
2023-02-19T04:59:26.243Z,11.13
2023-02-19T05:00:28.651Z,11.13
2023-02-19T05:01:31.057Z,11.12
2023-02-19T05:02:33.467Z,11.12
2023-02-19T05:03:36.441Z,11.12
2023-02-19T05:04:38.784Z,11.11
2023-02-19T05:05:41.165Z,11.11
2023-02-19T05:06:43.517Z,11.10
2023-02-19T05:07:45.954Z,11.09
2023-02-19T05:08:48.800Z,11.09
2023-02-19T05:09:51.143Z,11.08
2023-02-19T05:10:58.389Z,11.07
2023-02-19T05:12:00.738Z,11.06
2023-02-19T05:13:03.145Z,11.06
2023-02-19T05:14:05.497Z,11.05
2023-02-19T05:15:07.926Z,11.03
2023-02-19T05:16:16.328Z,11.01
2023-02-19T05:17:18.784Z,10.99
2023-02-19T05:18:21.152Z,10.96
2023-02-19T05:19:23.512Z,10.94
2023-02-19T05:20:25.855Z,10.91
2023-02-19T05:21:28.201Z,10.86
2023-02-19T05:22:30.765Z,10.81
2023-02-19T05:23:33.219Z,10.75
2023-02-19T05:24:35.591Z,10.70
2023-02-19T05:25:38.021Z,10.64
2023-02-19T05:26:40.406Z,10.59
2023-02-19T05:27:42.854Z,10.52
2023-02-19T05:28:46.369Z,10.46
2023-02-19T05:29:48.701Z,10.41
2023-02-19T05:30:52.330Z,10.34
2023-02-19T05:31:54.778Z,10.28
2023-02-19T05:32:57.222Z,10.22
2023-02-19T05:33:59.635Z,10.16
2023-02-19T05:35:01.995Z,10.09
2023-02-19T05:36:08.386Z,10.03
2023-02-19T05:37:10.701Z,9.97
2023-02-19T05:38:13.865Z,9.90
2023-02-19T05:39:16.303Z,9.84
2023-02-19T05:40:18.683Z,9.79
2023-02-19T05:41:27.076Z,9.72
2023-02-19T05:42:29.539Z,9.66
2023-02-19T05:43:31.873Z,9.60
2023-02-19T05:44:34.241Z,9.55
2023-02-19T05:45:37.270Z,9.49
2023-02-19T05:46:39.843Z,9.44
2023-02-19T05:47:42.329Z,9.39
2023-02-19T05:48:44.709Z,9.34
2023-02-19T05:49:47.089Z,9.30
2023-02-19T05:50:49.461Z,9.25
2023-02-19T05:51:51.955Z,9.21
2023-02-19T05:52:54.380Z,9.17
2023-02-19T05:53:57.359Z,9.13
2023-02-19T05:54:59.704Z,9.09
2023-02-19T05:56:02.313Z,9.06
2023-02-19T05:57:04.738Z,9.02
2023-02-19T05:58:07.058Z,8.99
2023-02-19T05:59:21.523Z,8.97
2023-02-19T06:00:27.086Z,8.93
2023-02-19T06:01:30.166Z,8.90
2023-02-19T06:02:32.579Z,8.87
2023-02-19T06:03:35.037Z,8.85
2023-02-19T06:04:37.391Z,8.82
2023-02-19T06:05:39.768Z,8.79
2023-02-19T06:06:42.633Z,8.76
2023-02-19T06:07:44.995Z,8.74
2023-02-19T06:08:50.254Z,8.71
2023-02-19T06:09:52.621Z,8.69
2023-02-19T06:10:55.012Z,8.68
2023-02-19T06:11:57.494Z,8.66
2023-02-19T06:12:59.877Z,8.64
2023-02-19T06:14:02.382Z,8.62
2023-02-19T06:15:06.579Z,8.61
2023-02-19T06:16:09.368Z,8.60
2023-02-19T06:17:11.753Z,8.59
2023-02-19T06:18:14.149Z,8.57
2023-02-19T06:19:16.648Z,8.56
2023-02-19T06:20:19.033Z,8.55
2023-02-19T06:21:21.400Z,8.54
2023-02-19T06:22:23.727Z,8.54
2023-02-19T06:23:28.396Z,8.53
2023-02-19T06:24:31.221Z,8.53
2023-02-19T06:25:33.550Z,8.52
2023-02-19T06:26:36.285Z,8.52
2023-02-19T06:27:39.730Z,8.52
2023-02-19T06:28:42.653Z,8.52
2023-02-19T06:29:45.128Z,8.52
2023-02-19T06:30:47.509Z,8.53
2023-02-19T06:31:50.014Z,8.53
2023-02-19T06:32:54.041Z,8.54
2023-02-19T06:33:56.488Z,8.54
2023-02-19T06:34:58.837Z,8.55
2023-02-19T06:36:03.166Z,8.55
2023-02-19T06:37:05.549Z,8.56
2023-02-19T06:38:07.930Z,8.57
2023-02-19T06:39:10.913Z,8.57
2023-02-19T06:40:13.280Z,8.59
2023-02-19T06:41:16.160Z,8.60
2023-02-19T06:42:19.214Z,8.61
2023-02-19T06:43:21.700Z,8.62
2023-02-19T06:44:24.786Z,8.62
2023-02-19T06:45:27.134Z,8.63
2023-02-19T06:46:29.643Z,8.64
2023-02-19T06:47:32.782Z,8.65
2023-02-19T06:48:35.473Z,8.66
2023-02-19T06:49:39.678Z,8.67
2023-02-19T06:50:42.055Z,8.69
2023-02-19T06:51:44.374Z,8.70
2023-02-19T06:52:46.706Z,8.71
2023-02-19T06:53:49.207Z,8.72
2023-02-19T06:54:51.596Z,8.73
2023-02-19T06:56:08.239Z,8.74
2023-02-19T06:57:10.659Z,8.75
2023-02-19T06:58:13.119Z,8.76
2023-02-19T06:59:19.370Z,8.77
2023-02-19T07:00:21.822Z,8.78
2023-02-19T07:01:24.388Z,8.79
2023-02-19T07:02:26.997Z,8.80
2023-02-19T07:03:29.382Z,8.81
2023-02-19T07:04:31.837Z,8.82
2023-02-19T07:05:34.265Z,8.83
2023-02-19T07:06:37.170Z,8.84
2023-02-19T07:07:39.510Z,8.86
2023-02-19T07:08:41.868Z,8.87
2023-02-19T07:09:44.245Z,8.88
2023-02-19T07:10:54.466Z,8.88
2023-02-19T07:11:57.029Z,8.89
2023-02-19T07:12:59.402Z,8.90
2023-02-19T07:14:03.971Z,8.91
2023-02-19T07:15:06.616Z,8.91
2023-02-19T07:16:11.196Z,8.92
2023-02-19T07:17:13.688Z,8.93
2023-02-19T07:18:16.049Z,8.94
2023-02-19T07:19:18.482Z,8.94
2023-02-19T07:20:20.859Z,8.95
2023-02-19T07:21:23.317Z,8.96
2023-02-19T07:22:25.752Z,8.97
2023-02-19T07:23:28.117Z,8.97
2023-02-19T07:24:30.483Z,8.98
2023-02-19T07:25:32.914Z,8.99
2023-02-19T07:26:36.001Z,9.00
2023-02-19T07:27:38.361Z,9.00
2023-02-19T07:28:42.301Z,9.01
2023-02-19T07:29:44.676Z,9.01
2023-02-19T07:30:47.051Z,9.02
2023-02-19T07:31:49.426Z,9.02
2023-02-19T07:32:51.840Z,9.03
2023-02-19T07:33:55.031Z,9.04
2023-02-19T07:34:57.986Z,9.04
2023-02-19T07:36:00.324Z,9.05
2023-02-19T07:37:02.717Z,9.06
2023-02-19T07:38:05.048Z,9.07
2023-02-19T07:39:09.981Z,9.08
2023-02-19T07:40:12.513Z,9.09
2023-02-19T07:41:15.033Z,9.10
2023-02-19T07:42:17.418Z,9.11
2023-02-19T07:43:20.445Z,9.12
2023-02-19T07:44:22.839Z,9.12
2023-02-19T07:45:25.200Z,9.13
2023-02-19T07:46:27.662Z,9.13
2023-02-19T07:47:30.171Z,9.14
2023-02-19T07:48:34.216Z,9.16
2023-02-19T07:49:36.613Z,9.17
2023-02-19T07:50:39.106Z,9.18
2023-02-19T07:51:41.517Z,9.19
2023-02-19T07:52:43.900Z,9.21
2023-02-19T07:53:47.555Z,9.22
2023-02-19T07:54:50.000Z,9.23
2023-02-19T07:55:52.638Z,9.24
2023-02-19T07:56:55.027Z,9.24
2023-02-19T07:57:58.514Z,9.25
2023-02-19T07:59:01.055Z,9.27
2023-02-19T08:00:04.138Z,9.28
2023-02-19T08:01:12.187Z,9.29
2023-02-19T08:02:38.149Z,9.30
2023-02-19T08:03:40.530Z,9.31
2023-02-19T08:04:42.910Z,9.32
2023-02-19T08:05:45.409Z,9.33
2023-02-19T08:06:50.737Z,9.34
2023-02-19T08:07:53.131Z,9.35
2023-02-19T08:08:57.087Z,9.36
2023-02-19T08:10:19.765Z,9.38
2023-02-19T08:11:40.504Z,9.40
2023-02-19T08:13:01.645Z,9.41
2023-02-19T08:14:04.290Z,9.42
2023-02-19T08:15:06.864Z,9.43
2023-02-19T08:16:21.824Z,9.44
2023-02-19T08:17:26.863Z,9.45
2023-02-19T08:18:31.885Z,9.46
2023-02-19T08:19:34.242Z,9.48
2023-02-19T08:20:37.048Z,9.49
2023-02-19T08:21:39.677Z,9.49
2023-02-19T08:22:42.030Z,9.50
2023-02-19T08:23:46.311Z,9.50
2023-02-19T08:24:48.702Z,9.51
2023-02-19T08:25:52.556Z,9.51
2023-02-19T08:26:54.927Z,9.52
2023-02-19T08:27:57.389Z,9.52
2023-02-19T08:28:59.778Z,9.53
2023-02-19T08:30:02.237Z,9.53
2023-02-19T08:31:06.997Z,9.54
2023-02-19T08:32:09.422Z,9.54
2023-02-19T08:33:13.741Z,9.53
2023-02-19T08:34:16.079Z,9.52
2023-02-19T08:35:18.524Z,9.52
2023-02-19T08:36:20.859Z,9.51
2023-02-19T08:37:23.197Z,9.50
2023-02-19T08:38:25.572Z,9.49
2023-02-19T08:39:27.927Z,9.48
2023-02-19T08:40:30.378Z,9.46
2023-02-19T08:41:32.784Z,9.45
2023-02-19T08:42:35.147Z,9.43
2023-02-19T08:43:37.540Z,9.42
2023-02-19T08:44:39.864Z,9.41
2023-02-19T08:45:44.361Z,9.39
2023-02-19T08:46:46.769Z,9.37
2023-02-19T08:47:49.078Z,9.36
2023-02-19T08:48:51.477Z,9.34
2023-02-19T08:49:53.858Z,9.32
2023-02-19T08:51:05.225Z,9.31
2023-02-19T08:52:07.592Z,9.30
2023-02-19T08:53:09.946Z,9.29
2023-02-19T08:54:12.264Z,9.28
2023-02-19T08:55:14.859Z,9.27
2023-02-19T08:56:17.787Z,9.26
2023-02-19T08:57:20.097Z,9.25
2023-02-19T08:58:22.817Z,9.24
2023-02-19T08:59:25.210Z,9.24
2023-02-19T09:00:27.584Z,9.23
2023-02-19T09:01:30.088Z,9.24
2023-02-19T09:02:32.680Z,9.24
2023-02-19T09:03:35.053Z,9.24
2023-02-19T09:04:38.310Z,9.25
2023-02-19T09:05:41.555Z,9.26
2023-02-19T09:06:43.912Z,9.27
2023-02-19T09:07:46.278Z,9.27
2023-02-19T09:08:48.596Z,9.29
2023-02-19T09:09:50.961Z,9.30
2023-02-19T09:11:01.288Z,9.31
2023-02-19T09:12:12.116Z,9.33
2023-02-19T09:13:14.425Z,9.35
2023-02-19T09:14:16.798Z,9.38
2023-02-19T09:15:19.125Z,9.40
2023-02-19T09:16:21.605Z,9.41
2023-02-19T09:17:23.995Z,9.42
2023-02-19T09:18:26.956Z,9.44
2023-02-19T09:19:29.889Z,9.45
2023-02-19T09:20:32.318Z,9.47
2023-02-19T09:21:34.821Z,9.48
2023-02-19T09:22:37.508Z,9.49
2023-02-19T09:23:40.074Z,9.50
2023-02-19T09:24:43.886Z,9.52
2023-02-19T09:25:46.436Z,9.54
2023-02-19T09:26:49.947Z,9.54
2023-02-19T09:27:55.766Z,9.56
2023-02-19T09:28:58.296Z,9.57
2023-02-19T09:30:00.785Z,9.59
2023-02-19T09:31:08.847Z,9.61
2023-02-19T09:32:11.763Z,9.63
2023-02-19T09:33:14.224Z,9.65
2023-02-19T09:34:16.636Z,9.66
2023-02-19T09:35:19.071Z,9.69
2023-02-19T09:36:21.413Z,9.71
2023-02-19T09:37:27.876Z,9.73
2023-02-19T09:38:31.110Z,9.76
2023-02-19T09:39:34.317Z,9.78
2023-02-19T09:40:38.562Z,9.81
2023-02-19T09:41:53.459Z,9.82
2023-02-19T09:42:55.998Z,9.85
2023-02-19T09:44:04.633Z,9.87
2023-02-19T09:45:07.388Z,9.88
2023-02-19T09:46:27.887Z,9.89
2023-02-19T09:47:32.077Z,9.90
2023-02-19T09:48:34.422Z,9.91
2023-02-19T09:49:40.410Z,9.91
2023-02-19T09:50:48.164Z,9.91
2023-02-19T09:51:55.681Z,9.91
2023-02-19T09:53:01.648Z,9.91
2023-02-19T09:54:06.998Z,9.91
2023-02-19T09:55:15.741Z,9.91
2023-02-19T09:56:18.639Z,9.92
2023-02-19T09:57:21.790Z,9.92
2023-02-19T09:58:30.074Z,9.93
2023-02-19T09:59:41.028Z,9.94
2023-02-19T10:00:43.613Z,9.96
2023-02-19T10:01:49.678Z,9.97
2023-02-19T10:02:54.397Z,9.98
2023-02-19T10:03:56.857Z,9.99
2023-02-19T10:04:59.968Z,9.95
2023-02-19T10:06:09.445Z,9.94
2023-02-19T10:07:15.622Z,9.96
2023-02-19T10:08:20.427Z,9.97
2023-02-19T10:09:26.997Z,9.98
2023-02-19T10:10:32.531Z,9.99
2023-02-19T10:11:34.976Z,10.00
2023-02-19T10:12:37.362Z,10.01
2023-02-19T10:14:04.679Z,10.02
2023-02-19T10:15:17.390Z,10.03
2023-02-19T10:16:25.032Z,10.03
2023-02-19T10:17:31.964Z,10.03
2023-02-19T10:18:41.284Z,10.02
2023-02-19T10:19:44.438Z,10.01
2023-02-19T10:20:48.235Z,10.01
2023-02-19T10:21:50.633Z,10.00
2023-02-19T10:23:01.640Z,10.00
2023-02-19T10:24:06.330Z,9.99
2023-02-19T10:25:13.519Z,9.99
2023-02-19T10:26:15.913Z,9.98
2023-02-19T10:27:18.755Z,9.97
2023-02-19T10:28:24.186Z,9.96
2023-02-19T10:29:27.309Z,9.94
2023-02-19T10:30:32.715Z,9.93
2023-02-19T10:31:35.206Z,9.92
2023-02-19T10:32:42.152Z,9.90
2023-02-19T10:33:55.234Z,9.89
2023-02-19T10:35:09.743Z,9.88
2023-02-19T10:36:23.051Z,9.86
2023-02-19T10:37:25.448Z,9.86
2023-02-19T10:38:34.222Z,9.87
2023-02-19T10:40:04.330Z,9.87
2023-02-19T10:41:27.157Z,9.89
2023-02-19T10:42:29.580Z,9.90
2023-02-19T10:43:37.036Z,9.91
2023-02-19T10:44:44.535Z,9.94
2023-02-19T10:45:48.531Z,9.96
2023-02-19T10:46:55.342Z,9.98
2023-02-19T10:47:57.986Z,10.01
2023-02-19T10:49:16.299Z,10.04
2023-02-19T10:50:29.721Z,10.07
2023-02-19T10:51:37.542Z,10.10
2023-02-19T10:52:40.250Z,10.14
2023-02-19T10:53:45.596Z,10.18
2023-02-19T10:54:55.277Z,10.23
2023-02-19T10:56:09.362Z,10.29
2023-02-19T10:57:30.378Z,10.34
2023-02-19T10:58:34.590Z,10.40
2023-02-19T10:59:36.928Z,10.45
2023-02-19T11:00:39.349Z,10.51
2023-02-19T11:02:17.864Z,10.59
2023-02-19T11:03:22.597Z,10.71
2023-02-19T11:04:27.039Z,10.79
2023-02-19T11:05:29.400Z,10.87
2023-02-19T11:06:33.464Z,10.92
2023-02-19T11:07:38.636Z,10.99
2023-02-19T11:08:43.770Z,11.05
2023-02-19T11:09:49.877Z,11.10
2023-02-19T11:10:52.289Z,11.15
2023-02-19T11:11:56.807Z,11.20
2023-02-19T11:13:04.209Z,11.26
2023-02-19T11:14:17.216Z,11.31
2023-02-19T11:15:33.841Z,11.38
2023-02-19T11:16:42.862Z,11.43
2023-02-19T11:17:45.712Z,11.49
2023-02-19T11:18:57.138Z,11.54
2023-02-19T11:20:06.768Z,11.59
2023-02-19T11:21:25.050Z,11.67
2023-02-19T11:22:40.088Z,11.75
2023-02-19T11:23:47.061Z,11.84
2023-02-19T11:24:54.540Z,11.90
2023-02-19T11:26:02.727Z,11.97
2023-02-19T11:27:07.644Z,12.04
2023-02-19T11:28:30.889Z,12.12
2023-02-19T11:29:35.483Z,12.21
2023-02-19T11:30:42.683Z,12.29
2023-02-19T11:31:45.357Z,12.37
2023-02-19T11:32:47.755Z,12.44
2023-02-19T11:34:03.357Z,12.52
2023-02-19T11:35:22.782Z,12.62
2023-02-19T11:36:30.096Z,12.69
2023-02-19T11:37:33.138Z,12.75
2023-02-19T11:38:35.568Z,12.81
2023-02-19T11:39:40.281Z,12.88
2023-02-19T11:41:19.822Z,12.94
2023-02-19T11:42:45.394Z,13.03
2023-02-19T11:44:13.200Z,13.07
2023-02-19T11:45:44.974Z,13.13
2023-02-19T11:47:17.707Z,13.21
2023-02-19T11:48:23.356Z,13.28
2023-02-19T11:49:40.697Z,13.31
2023-02-19T11:51:10.551Z,13.34
2023-02-19T11:52:29.105Z,13.39
2023-02-19T11:53:38.338Z,13.44
2023-02-19T11:54:52.031Z,13.47
2023-02-19T11:56:12.778Z,13.51
2023-02-19T11:57:47.550Z,13.54
2023-02-19T11:59:00.995Z,13.57
2023-02-19T12:00:23.285Z,13.58
2023-02-19T12:02:00.885Z,13.59
2023-02-19T12:03:15.087Z,13.60
2023-02-19T12:04:38.745Z,13.61
2023-02-19T12:05:49.993Z,13.62
2023-02-19T12:07:11.002Z,13.64
2023-02-19T12:08:20.878Z,13.66
2023-02-19T12:10:07.830Z,13.69
2023-02-19T12:11:18.144Z,13.74
2023-02-19T12:12:52.664Z,13.77
2023-02-19T12:14:21.092Z,13.81
2023-02-19T12:15:35.034Z,13.84
2023-02-19T12:16:46.677Z,13.87
2023-02-19T12:18:14.069Z,13.90
2023-02-19T12:19:46.938Z,13.94
2023-02-19T12:20:55.228Z,13.97
2023-02-19T12:22:11.785Z,14.01
2023-02-19T12:23:32.473Z,14.04
2023-02-19T12:25:25.926Z,14.07
2023-02-19T12:26:36.661Z,14.07
2023-02-19T12:28:07.982Z,14.09
2023-02-19T12:29:34.754Z,14.10
2023-02-19T12:31:14.672Z,14.11
2023-02-19T12:32:42.073Z,14.12
2023-02-19T12:34:02.436Z,14.13
2023-02-19T12:35:28.655Z,14.15
2023-02-19T12:36:41.149Z,14.17
2023-02-19T12:38:11.298Z,14.18
2023-02-19T12:39:26.861Z,14.20
2023-02-19T12:40:49.431Z,14.22
2023-02-19T12:42:40.890Z,14.25
2023-02-19T12:43:53.542Z,14.30
2023-02-19T12:45:00.163Z,14.33
2023-02-19T12:46:45.966Z,14.36
2023-02-19T12:48:14.142Z,14.42
2023-02-19T12:49:48.214Z,14.47
2023-02-19T12:50:56.941Z,14.52
2023-02-19T12:52:06.392Z,14.57
2023-02-19T12:53:26.690Z,14.62
2023-02-19T12:54:44.984Z,14.67
2023-02-19T12:55:48.497Z,14.72
2023-02-19T12:57:03.280Z,14.76
2023-02-19T12:58:11.803Z,14.80
2023-02-19T12:59:35.543Z,14.84
2023-02-19T13:00:43.590Z,14.90
2023-02-19T13:01:53.026Z,14.94
2023-02-19T13:02:55.336Z,14.99
2023-02-19T13:04:23.543Z,15.04
2023-02-19T13:05:39.868Z,15.11
2023-02-19T13:06:52.277Z,15.17
2023-02-19T13:08:12.589Z,15.19
2023-02-19T13:09:28.384Z,15.20
2023-02-19T13:10:49.087Z,15.22
2023-02-19T13:11:57.573Z,15.24
2023-02-19T13:13:05.808Z,15.26
2023-02-19T13:14:31.605Z,15.26
2023-02-19T13:15:44.270Z,15.27
2023-02-19T13:16:51.974Z,15.26
2023-02-19T13:17:57.331Z,15.26
2023-02-19T13:19:01.894Z,15.24
2023-02-19T13:20:27.531Z,15.24
2023-02-19T13:21:54.766Z,15.24
2023-02-19T13:23:15.710Z,15.22
2023-02-19T13:24:39.333Z,15.21
2023-02-19T13:26:20.349Z,15.18
2023-02-19T13:27:36.075Z,15.16
2023-02-19T13:29:06.316Z,15.15
2023-02-19T13:30:33.071Z,15.13
2023-02-19T13:31:54.139Z,15.10
2023-02-19T13:33:35.235Z,15.08
2023-02-19T13:35:01.384Z,15.04
2023-02-19T13:36:10.794Z,15.02
2023-02-19T13:37:13.784Z,15.01
2023-02-19T13:38:16.518Z,15.00
2023-02-19T13:39:21.224Z,15.01
2023-02-19T13:40:36.228Z,15.03
2023-02-19T13:41:49.491Z,15.04
2023-02-19T13:42:56.804Z,15.08
2023-02-19T13:44:05.098Z,15.12
2023-02-19T13:45:07.757Z,15.16
2023-02-19T13:46:12.367Z,15.19
2023-02-19T13:47:45.272Z,15.23
2023-02-19T13:48:47.691Z,15.32
2023-02-19T13:49:50.060Z,15.36
2023-02-19T13:51:21.730Z,15.40
2023-02-19T13:52:30.058Z,15.44
2023-02-19T13:53:42.498Z,15.47
2023-02-19T13:54:44.889Z,15.49
2023-02-19T13:55:51.484Z,15.50
2023-02-19T13:57:18.303Z,15.52
2023-02-19T13:58:42.374Z,15.54
2023-02-19T13:59:48.427Z,15.56
2023-02-19T14:00:52.157Z,15.56
2023-02-19T14:01:54.500Z,15.56
2023-02-19T14:03:27.207Z,15.54
2023-02-19T14:04:32.620Z,15.54
2023-02-19T14:05:58.088Z,15.53
2023-02-19T14:07:03.480Z,15.51
2023-02-19T14:08:09.082Z,15.49
2023-02-19T14:09:36.740Z,15.47
2023-02-19T14:10:50.934Z,15.44
2023-02-19T14:12:06.037Z,15.42
2023-02-19T14:13:09.047Z,15.40
2023-02-19T14:14:28.116Z,15.37
2023-02-19T14:15:43.966Z,15.33
2023-02-19T14:16:51.901Z,15.31
2023-02-19T14:17:55.367Z,15.31
2023-02-19T14:18:57.853Z,15.30
2023-02-19T14:20:09.288Z,15.30
2023-02-19T14:21:27.949Z,15.29
2023-02-19T14:23:05.870Z,15.29
2023-02-19T14:24:13.297Z,15.28
2023-02-19T14:25:30.741Z,15.28
2023-02-19T14:26:34.685Z,15.28
2023-02-19T14:27:38.176Z,15.27
2023-02-19T14:28:45.760Z,15.26
2023-02-19T14:29:48.783Z,15.24
2023-02-19T14:30:52.369Z,15.22
2023-02-19T14:31:55.293Z,15.21
2023-02-19T14:33:10.111Z,15.20
2023-02-19T14:34:22.452Z,15.17
2023-02-19T14:35:35.282Z,15.14
2023-02-19T14:36:47.896Z,15.11
2023-02-19T14:37:52.302Z,15.07
2023-02-19T14:38:58.250Z,15.02
2023-02-19T14:40:00.792Z,14.87
2023-02-19T14:41:04.165Z,14.67
2023-02-19T14:42:12.662Z,14.27
2023-02-19T14:43:18.184Z,13.69
2023-02-19T14:44:57.294Z,13.31
2023-02-19T14:46:33.250Z,12.81
2023-02-19T14:47:37.165Z,12.39
2023-02-19T14:48:45.956Z,12.12